Terminal Aerodrome Forecast
Issued by NWS La Crosse, WI

Home | Current Version | Previous Version | Text Only | Print | Product List | Glossary On
Versions: 1 2 3 4 5 6 7 8 9 10 11 12 13 14 15 16 17 18 19 20 21 22 23 24
000
FTUS43 KARX 232330
TAFLSE
TAF
KLSE 232330Z 2400/2424 01007KT P6SM -SHRA BKN035
      TEMPO 2400/2404 5SM -SHRA BKN025
     FM240400 02006KT P6SM VCSH OVC025
     FM240900 01005KT P6SM OVC015
     FM242100 02006KT P6SM BKN020=

USA.gov is the U.S. government's official web portal to all federal, state and local government web resources and services.